Time;durP1;ratioP1;P1;durP2;ratioP2;P2;SDS_P1;SDS_P2;PMS_P1;PMS_P2;Temp;Humidity;BMP_temperature;BMP_pressure;BME280_temperature;BME280_humidity;BME280_pressure;Samples;Min_cycle;Max_cycle;Signal;HPM_P1;HPM_P2
2022/05/13 00:01:23;;;;;;;13.63;10.80;;;;;;;19.04;97.36;98428.53;4124307;28;21015;-83
2022/05/13 00:03:27;;;;;;;11.63;10.00;;;;;;;19.04;97.48;98420.59;4124186;28;20677;-84
2022/05/13 00:05:30;;;;;;;11.40;10.40;;;;;;;19.04;98.19;98420.59;4125053;28;21203;-84
2022/05/13 00:07:35;;;;;;;12.37;9.87;;;;;;;19.02;97.39;98422.56;4138530;28;20630;-83
2022/05/13 00:11:59;;;;;;;13.07;10.57;;;;;;;18.99;96.78;98417.53;4146052;28;20956;-83
2022/05/13 00:14:02;;;;;;;12.13;10.33;;;;;;;19.02;97.34;98412.00;4129703;28;21492;-84
2022/05/13 00:16:07;;;;;;;11.73;10.53;;;;;;;19.02;97.72;98404.06;4127906;28;21206;-83
2022/05/13 00:18:10;;;;;;;16.00;11.50;;;;;;;18.98;96.83;98403.47;4111782;28;20636;-84
2022/05/13 00:20:14;;;;;;;12.07;10.73;;;;;;;18.99;97.73;98401.69;4108885;28;20640;-83
2022/05/13 00:22:19;;;;;;;12.83;11.40;;;;;;;18.97;98.07;98400.97;4113695;28;21007;-84
2022/05/13 00:24:28;;;;;;;11.90;10.03;;;;;;;18.93;97.51;98405.75;4127956;28;20650;-84
2022/05/13 00:26:31;;;;;;;11.13;10.03;;;;;;;18.94;97.62;98406.56;4112103;28;20644;-83
2022/05/13 00:28:34;;;;;;;11.53;10.37;;;;;;;18.95;98.46;98403.78;4108199;28;20654;-83
2022/05/13 00:30:39;;;;;;;12.03;10.93;;;;;;;18.95;98.37;98409.06;4125000;28;20658;-83
2022/05/13 00:32:44;;;;;;;12.10;10.87;;;;;;;18.98;98.18;98407.94;4127867;28;20654;-83
2022/05/13 00:34:49;;;;;;;12.93;11.07;;;;;;;19.00;98.15;98406.81;4126931;28;20639;-84
2022/05/13 00:36:53;;;;;;;12.27;11.00;;;;;;;19.02;97.62;98401.41;4127448;28;20649;-83
2022/05/13 00:38:56;;;;;;;13.30;11.90;;;;;;;19.04;97.41;98402.09;4107065;28;20739;-83
2022/05/13 00:41:01;;;;;;;12.63;11.43;;;;;;;19.05;98.11;98403.78;4126856;28;20635;-84
2022/05/13 00:43:06;;;;;;;12.73;10.90;;;;;;;19.05;97.34;98407.22;4107323;28;22640;-84
2022/05/13 00:45:13;;;;;;;13.27;11.27;;;;;;;19.05;98.86;98401.13;4139710;28;20657;-84
2022/05/13 00:47:16;;;;;;;14.40;11.43;;;;;;;19.06;97.83;98400.97;4140892;28;20715;-84
2022/05/13 00:49:21;;;;;;;13.07;11.77;;;;;;;19.08;98.15;98392.88;4142258;28;20662;-83
2022/05/13 00:51:27;;;;;;;12.40;10.97;;;;;;;19.09;96.78;98394.53;4127488;28;20795;-84
2022/05/13 00:53:30;;;;;;;11.90;10.70;;;;;;;19.09;97.87;98402.47;4120289;28;21284;-83
2022/05/13 00:55:37;;;;;;;12.87;11.60;;;;;;;19.10;96.81;98397.03;4129835;28;20635;-83
2022/05/13 00:57:42;;;;;;;13.23;11.40;;;;;;;19.11;97.69;98397.84;4127755;28;21051;-83
2022/05/13 00:59:46;;;;;;;11.60;10.40;;;;;;;19.10;97.44;98396.22;4125149;28;20643;-84
2022/05/13 01:01:50;;;;;;;11.17;10.07;;;;;;;19.09;97.33;98399.81;4126514;28;20662;-83
2022/05/13 01:03:54;;;;;;;12.87;11.53;;;;;;;19.08;97.42;98392.88;4124781;28;20755;-83
2022/05/13 01:06:00;;;;;;;12.67;11.30;;;;;;;19.09;96.65;98400.69;4143674;28;20665;-83
2022/05/13 01:08:06;;;;;;;14.13;11.50;;;;;;;19.10;98.01;98388.28;4142387;28;20665;-84
2022/05/13 01:10:18;;;;;;;13.57;12.00;;;;;;;19.08;97.61;98383.13;4123889;28;20646;-84
2022/05/13 01:12:25;;;;;;;12.73;10.70;;;;;;;19.05;98.10;98387.91;4125805;28;21151;-84
2022/05/13 01:14:36;;;;;;;12.70;11.40;;;;;;;19.05;98.17;98387.91;4131211;28;21560;-83
2022/05/13 01:19:02;;;;;;;12.63;11.33;;;;;;;19.06;97.45;98392.19;4109679;28;21251;-83
2022/05/13 01:21:08;;;;;;;13.60;12.23;;;;;;;19.06;97.67;98390.41;4140451;28;20622;-83
2022/05/13 01:23:16;;;;;;;12.77;11.53;;;;;;;19.07;97.49;98384.09;4125748;28;20667;-83
2022/05/13 01:25:21;;;;;;;12.13;10.93;;;;;;;19.09;97.49;98376.03;4131194;28;20638;-83
2022/05/13 01:27:25;;;;;;;12.60;11.40;;;;;;;19.12;97.08;98381.00;4122747;28;20678;-83
2022/05/13 01:29:28;;;;;;;13.13;11.87;;;;;;;19.12;96.81;98379.19;4123689;28;20718;-84
2022/05/13 01:31:33;;;;;;;14.03;12.37;;;;;;;19.13;97.18;98374.75;4125492;28;20750;-83
2022/05/13 01:33:37;;;;;;;12.53;11.33;;;;;;;19.11;98.34;98372.25;4124463;28;20631;-83
2022/05/13 01:35:42;;;;;;;13.37;11.97;;;;;;;19.08;97.61;98369.09;4111435;28;20748;-83
2022/05/13 01:37:46;;;;;;;12.67;11.47;;;;;;;19.04;97.69;98365.06;4111574;28;21250;-83
2022/05/13 01:39:50;;;;;;;17.30;12.90;;;;;;;19.02;97.40;98372.34;4129230;28;20630;-84
2022/05/13 01:41:54;;;;;;;14.50;12.30;;;;;;;19.03;98.18;98374.81;4140935;28;20746;-83
2022/05/13 01:43:58;;;;;;;12.87;11.60;;;;;;;19.06;97.50;98373.69;4125100;28;20631;-83
2022/05/13 01:46:01;;;;;;;14.00;12.50;;;;;;;19.05;97.25;98372.84;4141741;28;20714;-83
2022/05/13 01:48:07;;;;;;;12.87;11.03;;;;;;;19.07;97.88;98375.34;4143076;28;20630;-84
2022/05/13 01:50:11;;;;;;;15.50;12.27;;;;;;;19.07;98.50;98378.81;4112309;28;20687;-83
2022/05/13 01:52:15;;;;;;;13.97;12.47;;;;;;;19.07;98.83;98381.47;4121915;28;20681;-83
2022/05/13 01:54:18;;;;;;;14.57;12.13;;;;;;;19.08;98.53;98390.25;4108315;28;20648;-84
2022/05/13 01:56:23;;;;;;;14.03;12.07;;;;;;;19.07;97.57;98397.31;4121450;28;21350;-83
2022/05/13 01:58:27;;;;;;;13.50;11.57;;;;;;;19.07;98.26;98392.03;4140535;28;21309;-83
2022/05/13 02:00:30;;;;;;;12.97;11.67;;;;;;;19.03;98.52;98389.84;4142328;28;20646;-83
2022/05/13 02:03:44;;;;;;;14.60;12.20;;;;;;;18.98;98.26;98395.53;4124841;28;20663;-83
2022/05/13 02:04:56;;;;;;;15.80;12.47;;;;;;;18.95;98.53;98403.78;4139045;28;20667;-83
2022/05/13 02:06:59;;;;;;;14.50;11.50;;;;;;;18.93;100.00;98407.56;4123267;28;20635;-83
2022/05/13 02:09:03;;;;;;;12.97;11.53;;;;;;;18.92;100.00;98405.88;4122813;28;20654;-83
2022/05/13 02:11:07;;;;;;;11.17;10.00;;;;;;;18.87;99.38;98394.94;4121384;28;20642;-83
2022/05/13 02:13:12;;;;;;;13.10;11.80;;;;;;;18.86;99.96;98387.97;4144361;28;20753;-83
2022/05/13 02:15:15;;;;;;;12.80;11.50;;;;;;;18.85;99.85;98394.22;4123885;28;20642;-83
2022/05/13 02:17:19;;;;;;;12.47;11.17;;;;;;;18.86;100.00;98401.19;4109367;28;20815;-83
2022/05/13 02:19:22;;;;;;;12.10;10.47;;;;;;;18.87;99.78;98410.81;4123125;28;20639;-83
2022/05/13 02:21:26;;;;;;;12.23;10.87;;;;;;;18.89;99.62;98399.06;4129114;28;20670;-83
2022/05/13 02:23:29;;;;;;;11.17;9.93;;;;;;;18.92;99.85;98372.34;4121880;28;20667;-84
2022/05/13 02:25:33;;;;;;;13.20;11.07;;;;;;;18.93;98.63;98357.34;4125669;28;20675;-83
2022/05/13 02:27:36;;;;;;;11.23;10.23;;;;;;;18.91;98.37;98375.13;4123000;28;20640;-83
2022/05/13 02:29:41;;;;;;;12.07;10.87;;;;;;;18.89;97.91;98375.28;4108027;28;20714;-84
2022/05/13 02:31:44;;;;;;;11.70;10.60;;;;;;;18.89;98.24;98387.69;4127025;28;20747;-84
2022/05/13 02:33:47;;;;;;;13.43;11.20;;;;;;;18.86;97.96;98382.69;4121947;28;20693;-83
2022/05/13 02:35:51;;;;;;;11.70;10.50;;;;;;;18.85;99.14;98391.59;4138195;28;20997;-83
2022/05/13 02:37:57;;;;;;;11.50;10.37;;;;;;;18.85;99.87;98390.75;4142347;28;20669;-83
2022/05/13 02:40:01;;;;;;;16.37;11.10;;;;;;;18.85;99.38;98396.06;4129951;28;20635;-83
2022/05/13 02:42:05;;;;;;;13.60;10.80;;;;;;;18.82;100.00;98383.94;4129393;28;20624;-83
2022/05/13 02:44:08;;;;;;;13.53;10.30;;;;;;;18.82;98.56;98385.78;4125256;28;21217;-83
2022/05/13 02:46:19;;;;;;;11.27;9.80;;;;;;;18.73;98.94;98400.69;4141641;28;20626;-84
2022/05/13 02:48:22;;;;;;;13.20;9.40;;;;;;;18.60;99.33;98417.91;4125553;28;21003;-83
2022/05/13 02:50:26;;;;;;;11.97;9.63;;;;;;;18.47;98.53;98426.13;4120615;28;20647;-83
2022/05/13 02:52:29;;;;;;;11.27;9.40;;;;;;;18.37;98.55;98416.56;4126001;28;20638;-83
2022/05/13 02:54:34;;;;;;;9.93;8.87;;;;;;;18.30;97.99;98402.31;4140919;28;20626;-83
2022/05/13 02:56:38;;;;;;;10.67;8.23;;;;;;;18.33;98.58;98403.81;4139328;28;20641;-83
2022/05/13 02:58:42;;;;;;;9.80;8.70;;;;;;;18.35;99.12;98405.34;4124980;28;21293;-83
2022/05/13 03:00:46;;;;;;;11.93;8.70;;;;;;;18.39;98.64;98403.22;4127383;28;20636;-83
2022/05/13 03:02:50;;;;;;;9.07;8.17;;;;;;;18.42;98.53;98409.91;4126465;28;21264;-83
2022/05/13 03:04:54;;;;;;;9.20;7.87;;;;;;;18.46;98.56;98399.84;4136822;28;20654;-83
2022/05/13 03:06:57;;;;;;;9.03;7.93;;;;;;;18.48;98.59;98397.94;4123090;28;20738;-83
2022/05/13 03:09:00;;;;;;;9.90;8.30;;;;;;;18.46;98.25;98390.16;4122090;28;20639;-83
2022/05/13 03:11:04;;;;;;;12.77;8.40;;;;;;;18.46;98.29;98390.16;4141882;28;20658;-83
2022/05/13 03:13:10;;;;;;;9.50;8.50;;;;;;;18.49;98.56;98389.00;4105902;28;20659;-83
2022/05/13 03:15:13;;;;;;;9.80;8.80;;;;;;;18.50;98.58;98396.78;4124699;28;20675;-83
2022/05/13 03:17:17;;;;;;;9.80;8.50;;;;;;;18.46;99.02;98390.16;4108672;28;20651;-83
2022/05/13 03:19:22;;;;;;;11.80;8.70;;;;;;;18.45;99.24;98387.66;4106753;28;21017;-83
2022/05/13 03:21:26;;;;;;;10.37;8.20;;;;;;;18.43;98.63;98381.66;4124705;28;21410;-83
2022/05/13 03:23:29;;;;;;;9.40;8.50;;;;;;;18.42;98.08;98393.22;4123506;28;20765;-83
2022/05/13 03:25:33;;;;;;;9.90;8.20;;;;;;;18.37;98.61;98397.25;4139310;28;20642;-83
2022/05/13 03:27:36;;;;;;;10.40;8.03;;;;;;;18.39;98.42;98393.50;4138825;28;21037;-83
2022/05/13 03:29:40;;;;;;;14.53;7.83;;;;;;;18.41;98.05;98391.53;4109732;28;20647;-83
2022/05/13 03:31:43;;;;;;;9.17;7.53;;;;;;;18.41;98.28;98386.25;4108681;28;20617;-83
2022/05/13 03:33:47;;;;;;;9.93;7.30;;;;;;;18.43;98.05;98393.06;4135644;28;20729;-83
2022/05/13 03:35:52;;;;;;;10.27;7.77;;;;;;;18.44;97.79;98392.09;4134222;28;20627;-83
2022/05/13 03:37:55;;;;;;;11.30;8.17;;;;;;;18.45;98.37;98399.03;4125317;28;20750;-83
2022/05/13 03:39:59;;;;;;;8.57;7.60;;;;;;;18.46;98.34;98406.00;4139183;28;21209;-83
2022/05/13 03:42:04;;;;;;;8.40;7.40;;;;;;;18.45;98.40;98399.03;4130049;28;20639;-83
2022/05/13 03:44:08;;;;;;;8.90;8.00;;;;;;;18.44;98.08;98392.09;4139207;28;20646;-83
2022/05/13 03:46:11;;;;;;;11.07;7.93;;;;;;;18.43;98.57;98393.06;4144112;28;20725;-83
2022/05/13 03:48:15;;;;;;;9.73;8.30;;;;;;;18.40;99.28;98389.06;4144187;28;20688;-83
2022/05/13 03:50:19;;;;;;;10.33;8.30;;;;;;;18.40;99.09;98392.50;4115252;28;20699;-83
2022/05/13 03:52:23;;;;;;;9.47;8.47;;;;;;;18.39;98.37;98401.44;4125592;28;20639;-83
2022/05/13 03:54:27;;;;;;;13.17;8.80;;;;;;;18.39;98.39;98403.22;4128048;28;20644;-83
2022/05/13 03:56:31;;;;;;;9.50;8.60;;;;;;;18.39;98.33;98400.59;4126983;28;20765;-83
2022/05/13 03:58:34;;;;;;;8.60;7.70;;;;;;;18.37;97.82;98400.72;4124154;28;20658;-83
2022/05/13 04:00:37;;;;;;;10.80;8.20;;;;;;;18.35;98.87;98402.69;4125991;28;20638;-83
2022/05/13 04:02:40;;;;;;;9.77;8.53;;;;;;;18.33;98.96;98398.53;4127090;28;20745;-83
2022/05/13 04:09:28;;;;;;;8.50;7.60;;;;;;;18.30;98.95;98404.13;4109324;28;20632;-85
2022/05/13 04:11:41;;;;;;;10.13;7.40;;;;;;;18.28;99.24;98403.41;4107803;28;20643;-85
2022/05/13 04:16:07;;;;;;;11.17;8.47;;;;;;;18.33;98.42;98393.25;4126433;28;21197;-86
2022/05/13 04:18:11;;;;;;;10.30;8.40;;;;;;;18.35;97.91;98389.47;4140706;28;21257;-83
2022/05/13 04:20:21;;;;;;;10.17;7.67;;;;;;;18.36;98.23;98382.38;4141200;28;20652;-83
2022/05/13 04:22:25;;;;;;;8.10;7.30;;;;;;;18.40;97.14;98402.25;4143907;28;20637;-83
2022/05/13 04:24:30;;;;;;;9.80;7.83;;;;;;;18.40;97.65;98403.09;4148542;28;20672;-83
2022/05/13 04:26:33;;;;;;;12.47;8.60;;;;;;;18.41;97.76;98403.94;4110535;28;20644;-83
2022/05/13 04:28:37;;;;;;;10.03;8.13;;;;;;;18.39;97.47;98412.00;4127423;28;20624;-83
2022/05/13 04:30:40;;;;;;;8.70;7.73;;;;;;;18.41;97.14;98412.69;4108401;28;20731;-83
2022/05/13 04:32:43;;;;;;;12.67;8.27;;;;;;;18.41;98.50;98411.84;4126259;28;20626;-83
2022/05/13 04:34:46;;;;;;;16.40;10.37;;;;;;;18.41;98.65;98418.78;4127553;28;20631;-83
2022/05/13 04:36:51;;;;;;;9.43;8.30;;;;;;;18.42;98.44;98419.63;4125967;28;20679;-83
2022/05/13 04:38:55;;;;;;;11.70;7.97;;;;;;;18.40;97.85;98412.81;4126330;28;20634;-83
2022/05/13 04:42:49;;;;;;;10.37;8.10;;;;;;;18.41;98.06;98419.78;4129073;28;20665;-83
2022/05/13 04:43:23;;;;;;;11.83;8.13;;;;;;;18.41;98.03;98429.34;4135200;28;20623;-83
2022/05/13 04:45:28;;;;;;;11.17;8.50;;;;;;;18.41;98.33;98430.34;4128462;28;20653;-83
2022/05/13 04:49:57;;;;;;;14.80;10.20;;;;;;;18.45;97.70;98427.28;4127625;28;20635;-83
2022/05/13 04:52:01;;;;;;;13.10;9.87;;;;;;;18.44;98.16;98439.63;4144880;28;20672;-83
2022/05/13 04:54:05;;;;;;;12.60;9.83;;;;;;;18.46;97.91;98445.63;4140164;28;21053;-84
2022/05/13 04:56:10;;;;;;;14.83;9.87;;;;;;;18.46;97.98;98445.63;4123531;28;20773;-83
2022/05/13 04:58:14;;;;;;;12.47;10.57;;;;;;;18.47;98.12;98439.34;4126242;28;20632;-83
2022/05/13 05:00:19;;;;;;;12.47;10.97;;;;;;;18.48;98.14;98441.03;4150341;28;20642;-84
2022/05/13 05:02:23;;;;;;;13.10;11.70;;;;;;;18.52;98.54;98438.91;4129121;28;20635;-86
2022/05/13 05:04:26;;;;;;;12.60;10.17;;;;;;;18.53;98.27;98449.34;4126833;28;20644;-83
2022/05/13 05:06:29;;;;;;;14.30;10.40;;;;;;;18.53;98.03;98449.34;4144419;28;20669;-83
2022/05/13 05:08:33;;;;;;;11.13;9.27;;;;;;;18.52;98.37;98452.13;4129158;28;21030;-83
2022/05/13 05:10:36;;;;;;;13.23;10.60;;;;;;;18.51;99.03;98451.31;4133909;28;20636;-83
2022/05/13 05:12:42;;;;;;;11.10;9.90;;;;;;;18.50;98.39;98454.09;4130136;28;20676;-85
2022/05/13 05:14:45;;;;;;;11.90;9.73;;;;;;;18.49;98.50;98447.97;4148033;28;21056;-82
2022/05/13 05:16:48;;;;;;;14.40;9.93;;;;;;;18.51;98.93;98446.00;4131625;28;21206;-83
2022/05/13 05:18:52;;;;;;;13.17;9.93;;;;;;;18.53;98.25;98449.34;4131125;28;20658;-83
2022/05/13 05:20:55;;;;;;;14.00;10.17;;;;;;;18.53;98.18;98448.50;4143562;28;20647;-83
2022/05/13 05:22:59;;;;;;;11.23;10.03;;;;;;;18.53;97.71;98454.63;4132056;28;21434;-82
2022/05/13 05:25:03;;;;;;;11.27;9.17;;;;;;;18.53;98.57;98446.69;4143672;28;20654;-82
2022/05/13 05:27:09;;;;;;;11.90;9.63;;;;;;;18.56;97.84;98459.63;4129627;28;20651;-82
2022/05/13 05:29:16;;;;;;;10.40;9.20;;;;;;;18.58;98.59;98454.19;4119726;28;20632;-82
2022/05/13 05:31:22;;;;;;;9.93;8.93;;;;;;;18.61;98.58;98452.09;4147338;28;20673;-84
2022/05/13 05:33:26;;;;;;;11.93;9.83;;;;;;;18.66;97.58;98449.84;4127678;28;21326;-84
2022/05/13 05:35:30;;;;;;;12.43;10.83;;;;;;;18.69;98.83;98449.56;4129333;28;20632;-84
2022/05/13 05:37:33;;;;;;;13.60;9.60;;;;;;;18.73;98.94;98445.63;4146367;28;20713;-84
2022/05/13 05:39:38;;;;;;;11.70;9.43;;;;;;;18.78;97.97;98447.84;4146435;28;20630;-84
2022/05/13 05:41:41;;;;;;;11.13;9.80;;;;;;;18.83;98.50;98454.34;4133311;28;20642;-84
2022/05/13 05:43:44;;;;;;;10.70;9.60;;;;;;;18.87;97.52;98455.75;4129446;28;20650;-84
2022/05/13 05:45:49;;;;;;;11.23;9.07;;;;;;;18.89;97.35;98459.88;4145464;28;20649;-84
2022/05/13 05:47:53;;;;;;;10.20;8.60;;;;;;;18.91;98.00;98457.94;4119612;28;20641;-84
2022/05/13 05:49:59;;;;;;;10.77;8.23;;;;;;;18.93;96.96;98463.09;4130290;28;20632;-84
2022/05/13 05:52:02;;;;;;;9.70;8.13;;;;;;;18.94;97.47;98464.72;4148014;28;20654;-84
2022/05/13 05:58:47;;;;;;;10.67;8.70;;;;;;;18.96;96.66;98465.44;4129785;28;20624;-82
2022/05/13 06:00:52;;;;;;;10.33;7.73;;;;;;;18.97;96.32;98469.72;4128715;28;20639;-81
2022/05/13 06:02:56;;;;;;;9.10;7.70;;;;;;;18.96;97.29;98476.00;4135148;28;21113;-82
2022/05/13 06:04:59;;;;;;;9.53;8.60;;;;;;;18.94;96.22;98475.31;4128792;28;20679;-82
2022/05/13 06:07:03;;;;;;;11.13;8.80;;;;;;;18.96;97.00;98479.47;4131107;28;21271;-82
2022/05/13 06:09:08;;;;;;;9.63;8.20;;;;;;;18.96;96.57;98482.13;4130739;28;20628;-82
2022/05/13 06:11:11;;;;;;;10.60;8.40;;;;;;;18.96;97.05;98478.66;4130091;28;20671;-82
2022/05/13 06:13:15;;;;;;;9.70;8.70;;;;;;;18.98;97.46;98493.38;4129781;28;20631;-82
2022/05/13 06:15:18;;;;;;;11.93;8.27;;;;;;;19.00;96.67;98483.50;4126899;28;20632;-82
2022/05/13 06:17:23;;;;;;;10.53;8.30;;;;;;;19.02;97.59;98488.69;4131921;28;20739;-82
2022/05/13 06:19:26;;;;;;;8.90;7.97;;;;;;;19.03;97.55;98479.75;4129515;28;21131;-82
2022/05/13 06:21:31;;;;;;;11.60;8.97;;;;;;;19.03;98.09;98485.88;4147087;28;21242;-85
2022/05/13 06:23:35;;;;;;;13.23;8.57;;;;;;;19.06;97.85;98487.38;4126825;28;20631;-82
2022/05/13 06:25:39;;;;;;;12.47;8.93;;;;;;;19.09;97.53;98479.16;4110107;28;20664;-81
2022/05/13 06:27:44;;;;;;;10.80;8.80;;;;;;;19.10;96.37;98478.19;4126572;28;20664;-82
2022/05/13 06:29:47;;;;;;;12.83;9.70;;;;;;;19.15;97.20;98478.56;4143011;28;20726;-81
2022/05/13 06:31:52;;;;;;;11.20;8.30;;;;;;;19.20;96.82;98485.09;4127388;28;20654;-80
2022/05/13 06:33:57;;;;;;;12.43;9.20;;;;;;;19.23;97.42;98481.31;4134135;28;20639;-80
2022/05/13 06:36:00;;;;;;;10.30;9.30;;;;;;;19.27;97.03;98477.38;4125819;28;20647;-81
2022/05/13 06:38:04;;;;;;;11.93;8.97;;;;;;;19.33;97.92;98476.78;4115097;28;21282;-81
2022/05/13 06:40:08;;;;;;;12.47;10.07;;;;;;;19.39;97.14;98482.31;4122703;28;20738;-83
2022/05/13 06:42:12;;;;;;;10.63;9.47;;;;;;;19.41;96.45;98483.84;4128056;28;20653;-83
2022/05/13 06:44:18;;;;;;;11.60;10.40;;;;;;;19.43;97.08;98483.69;4124753;28;20710;-83
2022/05/13 06:46:21;;;;;;;12.83;9.40;;;;;;;19.44;96.73;98494.13;4122180;28;20717;-83
2022/05/13 06:48:25;;;;;;;11.70;10.50;;;;;;;19.43;95.93;98489.81;4128520;28;21013;-83
2022/05/13 06:50:31;;;;;;;18.40;14.47;;;;;;;19.46;96.04;98486.84;4128596;28;20649;-83
2022/05/13 06:52:34;;;;;;;12.37;10.13;;;;;;;19.50;95.98;98485.59;4146208;28;20737;-83
2022/05/13 06:54:45;;;;;;;12.70;9.83;;;;;;;19.54;95.83;98481.66;4126951;28;20627;-83
2022/05/13 06:56:54;;;;;;;12.80;10.50;;;;;;;19.60;96.08;98486.34;4137612;28;20693;-83
2022/05/13 06:58:58;;;;;;;14.80;10.03;;;;;;;19.70;97.18;98481.81;4129749;28;20737;-83
2022/05/13 07:01:02;;;;;;;11.10;10.00;;;;;;;19.73;96.77;98486.81;4147711;28;20637;-83
2022/05/13 07:03:06;;;;;;;13.67;10.63;;;;;;;19.79;95.05;98488.84;4129356;28;20743;-83
2022/05/13 07:05:10;;;;;;;17.37;11.70;;;;;;;19.82;95.96;98496.50;4113061;28;20613;-83
2022/05/13 07:07:15;;;;;;;11.40;10.20;;;;;;;19.83;95.02;98496.34;4105990;28;20671;-83
2022/05/13 07:09:19;;;;;;;11.37;9.63;;;;;;;19.84;94.40;98498.00;4128348;28;20661;-83
2022/05/13 07:11:24;;;;;;;15.10;10.20;;;;;;;19.85;93.63;98488.25;4129849;28;24497;-83
2022/05/13 07:13:27;;;;;;;11.17;9.20;;;;;;;19.91;93.68;98487.66;4123872;28;20647;-83
2022/05/13 07:15:31;;;;;;;12.80;11.20;;;;;;;20.04;93.86;98501.34;4129532;28;21267;-83
2022/05/13 07:17:35;;;;;;;16.97;10.37;;;;;;;20.22;92.63;98503.00;4153337;28;21375;-83
2022/05/13 07:19:38;;;;;;;14.37;11.90;;;;;;;20.27;93.59;98510.50;4133667;28;20638;-83
2022/05/13 07:21:41;;;;;;;12.30;9.80;;;;;;;20.24;92.50;98516.09;4145555;28;20638;-83
2022/05/13 07:23:46;;;;;;;11.70;10.50;;;;;;;20.21;93.44;98516.41;4134392;28;21198;-83
2022/05/13 07:25:49;;;;;;;12.53;10.37;;;;;;;20.16;94.03;98516.88;4146207;28;21420;-83
2022/05/13 07:27:53;;;;;;;12.57;9.23;;;;;;;20.10;91.98;98516.63;4145447;28;20630;-83
2022/05/13 07:29:56;;;;;;;9.97;8.77;;;;;;;20.03;92.43;98516.41;4129655;28;20694;-83
2022/05/13 07:32:06;;;;;;;11.07;9.93;;;;;;;20.03;93.25;98516.41;4147933;28;20614;-83
2022/05/13 07:34:09;;;;;;;13.10;8.93;;;;;;;19.99;91.65;98525.63;4128667;28;21009;-83
2022/05/13 07:36:13;;;;;;;9.43;7.67;;;;;;;19.93;91.19;98522.75;4129930;28;20735;-83
2022/05/13 07:38:16;;;;;;;13.37;9.50;;;;;;;19.87;90.76;98529.53;4134298;28;20650;-83
2022/05/13 07:42:41;;;;;;;11.73;8.57;;;;;;;19.80;91.09;98530.25;4150637;28;20684;-83
2022/05/13 07:44:45;;;;;;;10.83;8.93;;;;;;;19.81;92.27;98539.81;4135404;28;20988;-83
2022/05/13 07:46:48;;;;;;;10.97;8.53;;;;;;;19.79;92.77;98541.81;4130091;28;20682;-82
2022/05/13 07:48:52;;;;;;;8.50;7.67;;;;;;;19.81;92.28;98531.88;4128518;28;20735;-82
2022/05/13 07:50:55;;;;;;;13.87;6.90;;;;;;;19.83;90.08;98540.53;4129389;28;20639;-82
2022/05/13 07:52:59;;;;;;;11.33;6.40;;;;;;;19.83;87.95;98545.81;4131120;28;21034;-83
2022/05/13 07:55:02;;;;;;;8.20;6.37;;;;;;;19.80;86.85;98543.47;4134150;28;20643;-82
2022/05/13 07:57:07;;;;;;;10.20;6.50;;;;;;;19.81;89.67;98542.47;4134320;28;20631;-82
2022/05/13 07:59:11;;;;;;;12.00;7.27;;;;;;;19.82;89.93;98549.44;4129913;28;20633;-82
2022/05/13 08:01:15;;;;;;;10.33;5.80;;;;;;;19.79;87.66;98541.81;4134098;28;20635;-82
2022/05/13 08:03:18;;;;;;;7.10;5.33;;;;;;;19.79;87.61;98544.44;4148402;28;20720;-83
2022/05/13 08:05:23;;;;;;;8.77;5.60;;;;;;;19.80;85.98;98546.13;4130735;28;20623;-82
2022/05/13 08:07:26;;;;;;;6.07;5.10;;;;;;;19.85;86.00;98538.56;4131370;28;20750;-83
2022/05/13 08:09:29;;;;;;;11.63;5.20;;;;;;;19.94;85.63;98546.44;4149796;28;20688;-82
2022/05/13 08:11:33;;;;;;;9.13;5.10;;;;;;;20.02;83.70;98541.22;4135920;28;20634;-82
2022/05/13 08:13:43;;;;;;;9.60;5.30;;;;;;;20.05;83.59;98548.88;4150824;28;20622;-82
2022/05/13 08:15:47;;;;;;;8.10;5.20;;;;;;;20.07;85.09;98544.28;4131565;28;20639;-83
2022/05/13 08:17:50;;;;;;;6.67;4.50;;;;;;;20.12;85.26;98552.59;4125326;28;20639;-83
2022/05/13 08:19:54;;;;;;;10.67;5.87;;;;;;;20.16;86.32;98555.75;4109855;28;20633;-83
2022/05/13 08:21:58;;;;;;;10.47;5.37;;;;;;;20.22;86.61;98553.34;4129301;28;20730;-83
2022/05/13 08:24:01;;;;;;;7.87;4.87;;;;;;;20.31;84.53;98552.41;4130295;28;21299;-82
2022/05/13 08:26:05;;;;;;;8.37;4.73;;;;;;;20.49;81.87;98548.75;4148067;28;20643;-82
2022/05/13 08:28:09;;;;;;;10.30;4.60;;;;;;;20.86;81.79;98546.69;4129415;28;20647;-83
2022/05/13 08:30:16;;;;;;;6.10;3.93;;;;;;;21.18;81.36;98554.81;4127871;28;20630;-82
2022/05/13 08:32:19;;;;;;;6.07;4.00;;;;;;;21.50;80.43;98558.47;4131170;28;20627;-82
2022/05/13 08:34:23;;;;;;;5.27;3.70;;;;;;;21.65;78.48;98546.25;4144263;28;20626;-83
2022/05/13 08:36:26;;;;;;;5.57;3.73;;;;;;;21.75;76.05;98546.94;4146061;28;21105;-83
2022/05/13 08:38:31;;;;;;;6.43;4.30;;;;;;;21.95;75.68;98554.44;4132319;28;20725;-82
2022/05/13 08:40:50;;;;;;;8.33;4.40;;;;;;;22.07;75.38;98547.81;4132179;28;20685;-83
2022/05/13 08:42:53;;;;;;;7.80;4.77;;;;;;;22.17;75.05;98556.47;4130363;28;20643;-83
2022/05/13 08:44:57;;;;;;;7.67;4.43;;;;;;;22.36;74.87;98552.53;4132123;28;20666;-82
2022/05/13 08:47:11;;;;;;;9.40;4.77;;;;;;;22.69;74.79;98556.81;4139068;28;20701;-83
2022/05/13 08:49:25;;;;;;;7.83;5.17;;;;;;;22.97;73.50;98558.13;4148243;28;20712;-83
2022/05/13 08:51:32;;;;;;;8.50;5.07;;;;;;;23.17;71.93;98556.72;4144429;28;20654;-83
2022/05/13 08:53:38;;;;;;;6.73;5.20;;;;;;;23.46;73.45;98561.28;4132447;28;20998;-83
2022/05/13 08:55:48;;;;;;;7.60;5.30;;;;;;;23.77;70.35;98559.53;4146386;28;20642;-83
2022/05/13 08:57:52;;;;;;;11.63;4.97;;;;;;;23.67;68.30;98558.06;4145963;28;20631;-83
2022/05/13 08:59:57;;;;;;;10.77;5.20;;;;;;;23.66;69.69;98557.22;4145710;28;20746;-83
2022/05/13 09:02:07;;;;;;;6.63;4.80;;;;;;;23.89;69.62;98558.94;4137661;28;20635;-83
2022/05/13 09:04:15;;;;;;;9.50;4.40;;;;;;;23.94;69.33;98556.56;4138162;28;20721;-83
2022/05/13 09:06:21;;;;;;;7.47;4.80;;;;;;;23.71;68.42;98561.03;4120301;28;20694;-83
2022/05/13 09:08:24;;;;;;;7.00;4.67;;;;;;;23.56;67.08;98561.94;4114688;28;21115;-83
2022/05/13 09:10:29;;;;;;;6.90;4.47;;;;;;;23.46;70.17;98565.78;4131628;28;20627;-83
2022/05/13 09:12:37;;;;;;;6.90;4.30;;;;;;;23.26;67.08;98559.22;4129975;28;20718;-83
2022/05/13 09:14:45;;;;;;;6.73;4.67;;;;;;;22.97;67.59;98563.44;4127374;28;20649;-83
2022/05/13 09:16:54;;;;;;;9.37;4.27;;;;;;;22.75;67.87;98559.63;4127480;28;20697;-83
2022/05/13 09:19:03;;;;;;;7.37;4.50;;;;;;;22.53;67.36;98561.31;4125004;28;20639;-83
2022/05/13 09:21:12;;;;;;;10.00;4.80;;;;;;;22.34;66.71;98557.19;4151154;28;20973;-83
2022/05/13 09:23:15;;;;;;;6.10;4.43;;;;;;;22.25;68.26;98563.50;4129189;28;21029;-83
2022/05/13 09:25:23;;;;;;;6.83;4.40;;;;;;;22.19;67.83;98554.47;4117160;28;20624;-83
2022/05/13 09:27:27;;;;;;;6.60;4.13;;;;;;;22.15;69.18;98561.13;4136807;28;20650;-83
2022/05/13 09:29:39;;;;;;;7.47;4.43;;;;;;;22.11;69.13;98559.78;4136492;28;20682;-83
2022/05/13 09:31:44;;;;;;;5.37;3.40;;;;;;;22.07;68.08;98561.94;4151692;28;20624;-83
2022/05/13 09:33:49;;;;;;;7.13;4.07;;;;;;;22.06;69.62;98551.50;4130106;28;20710;-83
2022/05/13 09:35:58;;;;;;;9.93;4.47;;;;;;;22.08;68.85;98560.94;4129394;28;20632;-83
2022/05/13 09:38:13;;;;;;;4.73;3.50;;;;;;;22.14;68.15;98549.66;4130349;28;21001;-83
2022/05/13 09:40:23;;;;;;;6.37;3.60;;;;;;;22.13;68.89;98555.13;4133267;28;20616;-83
2022/05/13 09:42:28;;;;;;;3.97;3.10;;;;;;;22.11;68.50;98549.97;4134441;28;20642;-84
2022/05/13 09:44:31;;;;;;;7.50;3.47;;;;;;;22.11;67.97;98549.97;4136115;28;21074;-82
2022/05/13 09:46:37;;;;;;;7.57;3.70;;;;;;;22.11;66.70;98552.63;4135549;28;21240;-83
2022/05/13 09:48:53;;;;;;;5.57;3.40;;;;;;;22.10;68.00;98542.16;4136476;28;20666;-83
2022/05/13 09:50:59;;;;;;;9.13;4.10;;;;;;;22.11;67.29;98542.00;4132503;28;21012;-83
2022/05/13 09:53:03;;;;;;;10.77;3.73;;;;;;;22.11;67.47;98546.50;4114346;28;20676;-83
2022/05/13 09:55:15;;;;;;;7.03;3.73;;;;;;;22.09;66.17;98548.50;4111044;28;20629;-83
2022/05/13 09:57:24;;;;;;;7.83;3.90;;;;;;;22.00;66.61;98550.31;4130709;28;20650;-82
2022/05/13 09:59:27;;;;;;;9.00;3.70;;;;;;;22.05;68.26;98544.50;4127915;28;20731;-82
2022/05/13 10:01:31;;;;;;;5.87;3.50;;;;;;;22.07;68.10;98550.47;4132555;28;20641;-82